sensor_id;sensor_type;location;lat;lon;timestamp;pressure;altitude;pressure_sealevel;temperature;humidity
60583;BME280;46415;47.536;19.066;2023-01-31T00:02:37;100068.25;;;1.84;100.00
60583;BME280;46415;47.536;19.066;2023-01-31T00:05:40;100076.72;;;1.85;100.00
60583;BME280;46415;47.536;19.066;2023-01-31T00:08:43;100064.13;;;1.73;100.00
60583;BME280;46415;47.536;19.066;2023-01-31T00:11:46;100052.22;;;1.69;100.00
60583;BME280;46415;47.536;19.066;2023-01-31T00:14:49;100052.22;;;1.70;100.00
60583;BME280;46415;47.536;19.066;2023-01-31T00:17:53;100055.69;;;1.66;100.00
60583;BME280;46415;47.536;19.066;2023-01-31T00:20:56;100086.88;;;1.92;100.00
60583;BME280;46415;47.536;19.066;2023-01-31T00:23:59;100074.69;;;2.11;100.00
60583;BME280;46415;47.536;19.066;2023-01-31T00:27:02;100049.34;;;1.93;100.00
60583;BME280;46415;47.536;19.066;2023-01-31T00:30:05;100068.16;;;1.90;100.00
60583;BME280;46415;47.536;19.066;2023-01-31T00:33:08;100052.69;;;1.98;100.00
60583;BME280;46415;47.536;19.066;2023-01-31T00:36:14;100039.12;;;1.91;100.00
60583;BME280;46415;47.536;19.066;2023-01-31T00:39:17;100032.34;;;1.90;100.00
60583;BME280;46415;47.536;19.066;2023-01-31T00:42:20;100025.56;;;1.86;100.00
60583;BME280;46415;47.536;19.066;2023-01-31T00:45:22;100020.25;;;2.00;100.00
60583;BME280;46415;47.536;19.066;2023-01-31T00:48:26;100028.09;;;1.86;100.00
60583;BME280;46415;47.536;19.066;2023-01-31T00:51:29;100023.75;;;1.94;100.00
60583;BME280;46415;47.536;19.066;2023-01-31T00:54:32;100040.63;;;2.08;100.00
60583;BME280;46415;47.536;19.066;2023-01-31T00:57:35;100038.84;;;2.10;100.00
60583;BME280;46415;47.536;19.066;2023-01-31T01:00:39;100032.94;;;2.08;100.00
60583;BME280;46415;47.536;19.066;2023-01-31T01:03:42;100035.53;;;2.03;100.00
60583;BME280;46415;47.536;19.066;2023-01-31T01:06:46;100033.87;;;2.00;100.00
60583;BME280;46415;47.536;19.066;2023-01-31T01:09:49;100053.19;;;2.21;100.00
60583;BME280;46415;47.536;19.066;2023-01-31T01:12:53;100037.88;;;2.20;100.00
60583;BME280;46415;47.536;19.066;2023-01-31T01:15:56;100030.94;;;2.26;100.00
60583;BME280;46415;47.536;19.066;2023-01-31T01:19:01;100040.34;;;2.26;100.00
60583;BME280;46415;47.536;19.066;2023-01-31T01:22:06;100023.78;;;2.46;100.00
60583;BME280;46415;47.536;19.066;2023-01-31T01:25:09;100053.53;;;2.55;100.00
60583;BME280;46415;47.536;19.066;2023-01-31T01:28:12;100041.38;;;2.66;100.00
60583;BME280;46415;47.536;19.066;2023-01-31T01:31:16;100036.31;;;2.63;100.00
60583;BME280;46415;47.536;19.066;2023-01-31T01:34:19;100038.75;;;2.69;100.00
60583;BME280;46415;47.536;19.066;2023-01-31T01:37:22;100024.13;;;2.76;100.00
60583;BME280;46415;47.536;19.066;2023-01-31T01:40:34;100038.62;;;2.78;100.00
60583;BME280;46415;47.536;19.066;2023-01-31T01:46:54;100072.81;;;2.76;100.00
60583;BME280;46415;47.536;19.066;2023-01-31T01:53:27;100063.41;;;2.76;100.00
60583;BME280;46415;47.536;19.066;2023-01-31T01:56:35;100071.97;;;2.75;100.00
60583;BME280;46415;47.536;19.066;2023-01-31T01:59:42;100074.72;;;2.63;100.00
60583;BME280;46415;47.536;19.066;2023-01-31T02:02:48;100080.03;;;2.51;100.00
60583;BME280;46415;47.536;19.066;2023-01-31T02:05:55;100091.97;;;2.52;100.00
60583;BME280;46415;47.536;19.066;2023-01-31T02:08:59;100099.62;;;2.55;100.00
60583;BME280;46415;47.536;19.066;2023-01-31T02:12:02;100121.78;;;2.58;100.00
60583;BME280;46415;47.536;19.066;2023-01-31T02:15:05;100120.91;;;2.60;100.00
60583;BME280;46415;47.536;19.066;2023-01-31T02:18:10;100135.50;;;2.54;100.00
60583;BME280;46415;47.536;19.066;2023-01-31T02:21:48;100129.78;;;2.38;100.00
60583;BME280;46415;47.536;19.066;2023-01-31T02:31:59;100134.91;;;2.36;100.00
60583;BME280;46415;47.536;19.066;2023-01-31T02:35:15;100138.25;;;2.43;100.00
60583;BME280;46415;47.536;19.066;2023-01-31T02:38:54;100132.97;;;2.52;100.00
60583;BME280;46415;47.536;19.066;2023-01-31T02:42:09;100120.12;;;2.55;100.00
60583;BME280;46415;47.536;19.066;2023-01-31T02:45:40;100134.66;;;2.55;100.00
60583;BME280;46415;47.536;19.066;2023-01-31T02:49:23;100119.34;;;2.50;100.00
60583;BME280;46415;47.536;19.066;2023-01-31T02:52:44;100119.38;;;2.49;100.00
60583;BME280;46415;47.536;19.066;2023-01-31T02:55:54;100127.56;;;2.69;100.00
60583;BME280;46415;47.536;19.066;2023-01-31T02:59:22;100132.75;;;2.66;100.00
60583;BME280;46415;47.536;19.066;2023-01-31T03:02:29;100149.03;;;2.63;100.00
60583;BME280;46415;47.536;19.066;2023-01-31T03:05:32;100146.53;;;2.60;100.00
60583;BME280;46415;47.536;19.066;2023-01-31T03:08:40;100161.03;;;2.60;100.00
60583;BME280;46415;47.536;19.066;2023-01-31T03:18:30;100169.66;;;2.54;100.00
60583;BME280;46415;47.536;19.066;2023-01-31T03:21:50;100176.41;;;2.58;100.00
60583;BME280;46415;47.536;19.066;2023-01-31T03:24:55;100177.44;;;2.46;100.00
60583;BME280;46415;47.536;19.066;2023-01-31T03:28:02;100176.41;;;2.58;100.00
60583;BME280;46415;47.536;19.066;2023-01-31T03:31:18;100175.75;;;2.45;100.00
60583;BME280;46415;47.536;19.066;2023-01-31T03:34:23;100165.50;;;2.45;100.00
60583;BME280;46415;47.536;19.066;2023-01-31T03:37:36;100189.22;;;2.58;100.00
60583;BME280;46415;47.536;19.066;2023-01-31T03:40:48;100195.31;;;2.51;100.00
60583;BME280;46415;47.536;19.066;2023-01-31T03:44:13;100192.78;;;2.50;100.00
60583;BME280;46415;47.536;19.066;2023-01-31T03:47:36;100220.97;;;2.50;100.00
60583;BME280;46415;47.536;19.066;2023-01-31T03:50:52;100214.91;;;2.54;100.00
60583;BME280;46415;47.536;19.066;2023-01-31T03:54:00;100219.28;;;2.47;100.00
60583;BME280;46415;47.536;19.066;2023-01-31T03:57:17;100223.78;;;2.27;100.00
60583;BME280;46415;47.536;19.066;2023-01-31T04:00:23;100222.12;;;2.23;100.00
60583;BME280;46415;47.536;19.066;2023-01-31T04:03:50;100228.81;;;2.37;100.00
60583;BME280;46415;47.536;19.066;2023-01-31T04:06:54;100226.16;;;2.42;100.00
60583;BME280;46415;47.536;19.066;2023-01-31T04:09:58;100237.44;;;2.29;100.00
60583;BME280;46415;47.536;19.066;2023-01-31T04:13:00;100233.81;;;2.45;100.00
60583;BME280;46415;47.536;19.066;2023-01-31T04:16:03;100245.81;;;2.43;100.00
60583;BME280;46415;47.536;19.066;2023-01-31T04:19:07;100236.31;;;2.50;100.00
60583;BME280;46415;47.536;19.066;2023-01-31T04:22:10;100262.75;;;2.52;100.00
60583;BME280;46415;47.536;19.066;2023-01-31T04:25:13;100257.53;;;2.59;100.00
60583;BME280;46415;47.536;19.066;2023-01-31T04:28:15;100261.88;;;2.54;100.00
60583;BME280;46415;47.536;19.066;2023-01-31T04:31:18;100272.13;;;2.54;100.00
60583;BME280;46415;47.536;19.066;2023-01-31T04:34:21;100268.78;;;2.49;100.00
60583;BME280;46415;47.536;19.066;2023-01-31T04:37:24;100274.69;;;2.54;100.00
60583;BME280;46415;47.536;19.066;2023-01-31T04:40:27;100279.78;;;2.56;100.00
60583;BME280;46415;47.536;19.066;2023-01-31T04:43:29;100280.66;;;2.56;100.00
60583;BME280;46415;47.536;19.066;2023-01-31T04:46:32;100289.91;;;2.65;100.00
60583;BME280;46415;47.536;19.066;2023-01-31T04:49:35;100279.66;;;2.65;100.00
60583;BME280;46415;47.536;19.066;2023-01-31T04:52:38;100275.31;;;2.71;100.00
60583;BME280;46415;47.536;19.066;2023-01-31T04:55:40;100282.22;;;2.66;100.00
60583;BME280;46415;47.536;19.066;2023-01-31T04:58:43;100301.03;;;2.62;100.00
60583;BME280;46415;47.536;19.066;2023-01-31T05:01:47;100309.53;;;2.67;100.00
60583;BME280;46415;47.536;19.066;2023-01-31T05:04:49;100318.16;;;2.60;100.00
60583;BME280;46415;47.536;19.066;2023-01-31T05:07:52;100311.37;;;2.55;100.00
60583;BME280;46415;47.536;19.066;2023-01-31T05:10:59;100314.91;;;2.44;100.00
60583;BME280;46415;47.536;19.066;2023-01-31T05:14:05;100332.03;;;2.41;100.00
60583;BME280;46415;47.536;19.066;2023-01-31T05:17:08;100325.97;;;2.50;100.00
60583;BME280;46415;47.536;19.066;2023-01-31T05:20:11;100320.34;;;2.16;100.00
60583;BME280;46415;47.536;19.066;2023-01-31T05:23:14;100319.78;;;1.88;100.00
60583;BME280;46415;47.536;19.066;2023-01-31T05:26:16;100317.38;;;1.71;100.00
60583;BME280;46415;47.536;19.066;2023-01-31T05:29:20;100317.53;;;1.53;100.00
60583;BME280;46415;47.536;19.066;2023-01-31T05:32:23;100315.88;;;1.44;100.00
60583;BME280;46415;47.536;19.066;2023-01-31T05:35:26;100309.09;;;1.39;100.00
60583;BME280;46415;47.536;19.066;2023-01-31T05:38:29;100309.22;;;1.23;100.00
60583;BME280;46415;47.536;19.066;2023-01-31T05:41:32;100302.38;;;1.29;100.00
60583;BME280;46415;47.536;19.066;2023-01-31T05:44:35;100316.81;;;1.36;100.00
60583;BME280;46415;47.536;19.066;2023-01-31T05:47:38;100316.06;;;1.25;100.00
60583;BME280;46415;47.536;19.066;2023-01-31T05:50:41;100317.69;;;1.32;100.00
60583;BME280;46415;47.536;19.066;2023-01-31T05:53:43;100316.78;;;1.39;100.00
60583;BME280;46415;47.536;19.066;2023-01-31T05:56:46;100305.75;;;1.37;100.00
60583;BME280;46415;47.536;19.066;2023-01-31T05:59:49;100286.97;;;1.38;100.00
60583;BME280;46415;47.536;19.066;2023-01-31T06:02:56;100290.31;;;1.46;100.00
60583;BME280;46415;47.536;19.066;2023-01-31T06:05:59;100296.12;;;1.66;100.00
60583;BME280;46415;47.536;19.066;2023-01-31T06:09:02;100290.12;;;1.67;100.00
60583;BME280;46415;47.536;19.066;2023-01-31T06:12:05;100291.00;;;1.63;100.00
60583;BME280;46415;47.536;19.066;2023-01-31T06:15:09;100290.22;;;1.58;100.00
60583;BME280;46415;47.536;19.066;2023-01-31T06:18:12;100312.31;;;1.65;100.00
60583;BME280;46415;47.536;19.066;2023-01-31T06:21:15;100308.00;;;1.70;100.00
60583;BME280;46415;47.536;19.066;2023-01-31T06:24:18;100310.56;;;1.70;100.00
60583;BME280;46415;47.536;19.066;2023-01-31T06:27:21;100309.72;;;1.71;100.00
60583;BME280;46415;47.536;19.066;2023-01-31T06:30:24;100310.47;;;1.81;100.00
60583;BME280;46415;47.536;19.066;2023-01-31T06:33:28;100332.56;;;1.89;100.00
60583;BME280;46415;47.536;19.066;2023-01-31T06:36:48;100338.50;;;1.91;100.00
60583;BME280;46415;47.536;19.066;2023-01-31T06:39:51;100331.72;;;1.89;100.00
60583;BME280;46415;47.536;19.066;2023-01-31T06:42:53;100329.97;;;1.95;100.00
60583;BME280;46415;47.536;19.066;2023-01-31T06:45:56;100315.41;;;1.97;100.00
60583;BME280;46415;47.536;19.066;2023-01-31T06:48:59;100336.72;;;2.01;100.00
60583;BME280;46415;47.536;19.066;2023-01-31T06:52:02;100344.47;;;1.96;100.00
60583;BME280;46415;47.536;19.066;2023-01-31T06:55:06;100344.41;;;2.01;100.00
60583;BME280;46415;47.536;19.066;2023-01-31T06:58:09;100341.00;;;1.97;100.00
60583;BME280;46415;47.536;19.066;2023-01-31T07:01:13;100362.25;;;2.07;100.00
60583;BME280;46415;47.536;19.066;2023-01-31T07:04:16;100375.00;;;2.13;100.00
60583;BME280;46415;47.536;19.066;2023-01-31T07:07:19;100349.28;;;2.24;100.00
60583;BME280;46415;47.536;19.066;2023-01-31T07:10:21;100355.25;;;2.26;100.00
60583;BME280;46415;47.536;19.066;2023-01-31T07:13:24;100361.19;;;2.31;100.00
60583;BME280;46415;47.536;19.066;2023-01-31T07:16:27;100358.59;;;2.32;100.00
60583;BME280;46415;47.536;19.066;2023-01-31T07:19:30;100361.06;;;2.40;100.00
60583;BME280;46415;47.536;19.066;2023-01-31T07:22:33;100357.56;;;2.47;100.00
60583;BME280;46415;47.536;19.066;2023-01-31T07:25:36;100370.38;;;2.47;100.00
60583;BME280;46415;47.536;19.066;2023-01-31T07:28:39;100374.66;;;2.48;100.00
60583;BME280;46415;47.536;19.066;2023-01-31T07:31:41;100376.31;;;2.52;100.00
60583;BME280;46415;47.536;19.066;2023-01-31T07:34:44;100380.44;;;2.62;100.00
60583;BME280;46415;47.536;19.066;2023-01-31T07:37:50;100393.19;;;2.70;100.00
60583;BME280;46415;47.536;19.066;2023-01-31T07:40:53;100422.28;;;2.64;100.00
60583;BME280;46415;47.536;19.066;2023-01-31T07:43:59;100418.72;;;2.76;100.00
60583;BME280;46415;47.536;19.066;2023-01-31T07:47:02;100426.34;;;2.85;100.00
60583;BME280;46415;47.536;19.066;2023-01-31T07:50:06;100409.97;;;2.97;100.00
60583;BME280;46415;47.536;19.066;2023-01-31T07:53:09;100439.75;;;3.05;100.00
60583;BME280;46415;47.536;19.066;2023-01-31T07:56:13;100434.63;;;3.07;100.00
60583;BME280;46415;47.536;19.066;2023-01-31T07:59:16;100444.00;;;3.06;100.00
60583;BME280;46415;47.536;19.066;2023-01-31T08:02:20;100456.75;;;3.15;100.00
60583;BME280;46415;47.536;19.066;2023-01-31T08:05:44;100455.00;;;3.16;100.00
60583;BME280;46415;47.536;19.066;2023-01-31T08:08:48;100429.25;;;3.26;100.00
60583;BME280;46415;47.536;19.066;2023-01-31T08:11:51;100453.19;;;3.24;100.00
60583;BME280;46415;47.536;19.066;2023-01-31T08:14:53;100463.38;;;3.32;100.00
60583;BME280;46415;47.536;19.066;2023-01-31T08:17:56;100447.88;;;3.39;100.00
60583;BME280;46415;47.536;19.066;2023-01-31T08:20:59;100472.62;;;3.43;100.00
60583;BME280;46415;47.536;19.066;2023-01-31T08:24:03;100479.47;;;3.43;100.00
60583;BME280;46415;47.536;19.066;2023-01-31T08:27:06;100502.50;;;3.47;99.02
60583;BME280;46415;47.536;19.066;2023-01-31T08:30:09;100499.84;;;3.53;98.52
60583;BME280;46415;47.536;19.066;2023-01-31T08:33:12;100522.72;;;3.70;98.66
60583;BME280;46415;47.536;19.066;2023-01-31T08:36:18;100510.69;;;3.74;97.82
60583;BME280;46415;47.536;19.066;2023-01-31T08:39:21;100538.09;;;3.72;96.85
60583;BME280;46415;47.536;19.066;2023-01-31T08:42:24;100549.13;;;3.78;97.17
60583;BME280;46415;47.536;19.066;2023-01-31T08:45:29;100553.47;;;3.73;96.43
60583;BME280;46415;47.536;19.066;2023-01-31T08:48:37;100564.53;;;3.78;96.50
60583;BME280;46415;47.536;19.066;2023-01-31T08:51:39;100567.00;;;3.87;97.59
60583;BME280;46415;47.536;19.066;2023-01-31T08:54:43;100571.12;;;3.99;97.25
60583;BME280;46415;47.536;19.066;2023-01-31T08:57:45;100577.94;;;4.00;96.39
60583;BME280;46415;47.536;19.066;2023-01-31T09:01:09;100586.37;;;4.08;94.95
60583;BME280;46415;47.536;19.066;2023-01-31T09:04:12;100586.37;;;4.08;94.85
60583;BME280;46415;47.536;19.066;2023-01-31T09:07:15;100585.38;;;4.20;94.63
60583;BME280;46415;47.536;19.066;2023-01-31T09:10:23;100590.50;;;4.21;93.79
60583;BME280;46415;47.536;19.066;2023-01-31T09:13:27;100593.81;;;4.28;95.32
60583;BME280;46415;47.536;19.066;2023-01-31T09:16:30;100603.19;;;4.30;94.70
60583;BME280;46415;47.536;19.066;2023-01-31T09:19:33;100611.75;;;4.29;93.55
60583;BME280;46415;47.536;19.066;2023-01-31T09:22:36;100602.94;;;4.47;91.81
60583;BME280;46415;47.536;19.066;2023-01-31T09:25:38;100604.62;;;4.49;92.79
60583;BME280;46415;47.536;19.066;2023-01-31T09:28:49;100619.00;;;4.60;92.92
60583;BME280;46415;47.536;19.066;2023-01-31T09:31:53;100616.59;;;4.52;91.06
60583;BME280;46415;47.536;19.066;2023-01-31T09:34:56;100623.34;;;4.58;89.38
60583;BME280;46415;47.536;19.066;2023-01-31T09:37:58;100619.94;;;4.56;91.01
60583;BME280;46415;47.536;19.066;2023-01-31T09:41:05;100616.41;;;4.63;90.60
60583;BME280;46415;47.536;19.066;2023-01-31T09:47:33;100627.84;;;4.97;88.84
60583;BME280;46415;47.536;19.066;2023-01-31T09:50:46;100629.06;;;5.25;86.92
60583;BME280;46415;47.536;19.066;2023-01-31T09:53:52;100637.78;;;5.64;84.66
60583;BME280;46415;47.536;19.066;2023-01-31T09:57:02;100636.41;;;5.91;84.28
60583;BME280;46415;47.536;19.066;2023-01-31T10:00:23;100634.13;;;5.76;81.85
60583;BME280;46415;47.536;19.066;2023-01-31T10:03:50;100640.34;;;5.66;83.95
60583;BME280;46415;47.536;19.066;2023-01-31T10:07:05;100630.19;;;5.57;85.66
60583;BME280;46415;47.536;19.066;2023-01-31T10:13:52;100644.34;;;5.36;87.26
60583;BME280;46415;47.536;19.066;2023-01-31T10:20:07;100650.37;;;5.78;87.54
60583;BME280;46415;47.536;19.066;2023-01-31T10:23:28;100646.66;;;5.94;81.01
60583;BME280;46415;47.536;19.066;2023-01-31T10:26:36;100639.84;;;5.90;80.66
60583;BME280;46415;47.536;19.066;2023-01-31T10:29:44;100630.22;;;5.55;82.70
60583;BME280;46415;47.536;19.066;2023-01-31T10:32:56;100634.50;;;5.56;80.45
60583;BME280;46415;47.536;19.066;2023-01-31T10:36:08;100633.44;;;5.66;77.76
60583;BME280;46415;47.536;19.066;2023-01-31T10:42:35;100628.75;;;5.87;78.23
60583;BME280;46415;47.536;19.066;2023-01-31T10:45:38;100619.41;;;5.81;78.39
60583;BME280;46415;47.536;19.066;2023-01-31T10:48:42;100626.59;;;6.08;77.13
60583;BME280;46415;47.536;19.066;2023-01-31T10:52:17;100619.50;;;6.20;78.07
60583;BME280;46415;47.536;19.066;2023-01-31T10:58:48;100606.56;;;5.80;76.82
60583;BME280;46415;47.536;19.066;2023-01-31T11:01:52;100609.00;;;5.44;76.91
60583;BME280;46415;47.536;19.066;2023-01-31T11:04:57;100598.72;;;5.43;75.30
60583;BME280;46415;47.536;19.066;2023-01-31T11:08:05;100597.56;;;5.59;73.49
60583;BME280;46415;47.536;19.066;2023-01-31T11:11:21;100603.28;;;5.30;76.39
60583;BME280;46415;47.536;19.066;2023-01-31T11:14:26;100592.16;;;5.28;73.41
60583;BME280;46415;47.536;19.066;2023-01-31T11:17:30;100592.91;;;5.31;74.98
60583;BME280;46415;47.536;19.066;2023-01-31T11:20:36;100624.63;;;5.35;73.82
60583;BME280;46415;47.536;19.066;2023-01-31T11:23:42;100582.69;;;5.30;72.62
60583;BME280;46415;47.536;19.066;2023-01-31T11:26:57;100582.28;;;5.50;73.10
60583;BME280;46415;47.536;19.066;2023-01-31T11:30:01;100575.31;;;5.55;71.11
60583;BME280;46415;47.536;19.066;2023-01-31T11:33:06;100574.47;;;5.54;68.04
60583;BME280;46415;47.536;19.066;2023-01-31T11:36:17;100578.50;;;5.67;68.81
60583;BME280;46415;47.536;19.066;2023-01-31T11:42:31;100564.59;;;5.76;66.26
60583;BME280;46415;47.536;19.066;2023-01-31T11:45:36;100566.06;;;5.89;63.78
60583;BME280;46415;47.536;19.066;2023-01-31T11:48:42;100568.75;;;5.83;65.10
60583;BME280;46415;47.536;19.066;2023-01-31T11:51:46;100573.13;;;5.78;66.46
60583;BME280;46415;47.536;19.066;2023-01-31T11:55:01;100549.19;;;5.73;65.05
60583;BME280;46415;47.536;19.066;2023-01-31T11:58:23;100564.84;;;5.64;64.66
60583;BME280;46415;47.536;19.066;2023-01-31T12:01:26;100550.53;;;5.49;61.55
60583;BME280;46415;47.536;19.066;2023-01-31T12:04:32;100575.25;;;5.58;60.55
60583;BME280;46415;47.536;19.066;2023-01-31T12:07:54;100564.59;;;5.76;60.94
60583;BME280;46415;47.536;19.066;2023-01-31T12:10:58;100583.38;;;5.80;61.13
60583;BME280;46415;47.536;19.066;2023-01-31T12:14:13;100577.78;;;6.02;60.25
60583;BME280;46415;47.536;19.066;2023-01-31T12:17:17;100572.63;;;6.02;60.16
60583;BME280;46415;47.536;19.066;2023-01-31T12:20:38;100573.03;;;6.23;59.95
60583;BME280;46415;47.536;19.066;2023-01-31T12:37:33;100571.34;;;6.57;60.14
60583;BME280;46415;47.536;19.066;2023-01-31T12:50:34;100559.25;;;6.25;62.57
60583;BME280;46415;47.536;19.066;2023-01-31T12:57:17;100578.72;;;5.98;61.35
60583;BME280;46415;47.536;19.066;2023-01-31T13:07:31;100582.00;;;5.65;63.96
60583;BME280;46415;47.536;19.066;2023-01-31T13:10:44;100596.81;;;5.52;66.11
60583;BME280;46415;47.536;19.066;2023-01-31T13:13:51;100607.91;;;5.56;65.33
60583;BME280;46415;47.536;19.066;2023-01-31T13:17:01;100614.13;;;5.46;66.40
60583;BME280;46415;47.536;19.066;2023-01-31T13:23:24;100610.03;;;5.34;67.50
60583;BME280;46415;47.536;19.066;2023-01-31T13:26:34;100607.50;;;5.32;68.47
60583;BME280;46415;47.536;19.066;2023-01-31T13:29:44;100617.81;;;5.31;68.91
60583;BME280;46415;47.536;19.066;2023-01-31T13:32:50;100610.09;;;5.31;68.34
60583;BME280;46415;47.536;19.066;2023-01-31T13:36:34;100618.09;;;5.16;68.48
60583;BME280;46415;47.536;19.066;2023-01-31T13:39:48;100621.44;;;5.19;67.14
60583;BME280;46415;47.536;19.066;2023-01-31T13:42:54;100629.00;;;5.30;67.86
60583;BME280;46415;47.536;19.066;2023-01-31T13:46:03;100624.63;;;5.33;67.17
60583;BME280;46415;47.536;19.066;2023-01-31T13:49:30;100633.41;;;5.23;68.44
60583;BME280;46415;47.536;19.066;2023-01-31T13:52:39;100627.53;;;5.15;67.99
60583;BME280;46415;47.536;19.066;2023-01-31T13:55:45;100623.37;;;5.07;68.81
60583;BME280;46415;47.536;19.066;2023-01-31T13:58:50;100616.47;;;5.10;67.68
60583;BME280;46415;47.536;19.066;2023-01-31T14:01:55;100622.38;;;5.15;68.11
60583;BME280;46415;47.536;19.066;2023-01-31T14:05:06;100622.34;;;5.18;68.57
60583;BME280;46415;47.536;19.066;2023-01-31T14:11:54;100639.53;;;5.16;71.49
60583;BME280;46415;47.536;19.066;2023-01-31T14:14:58;100638.09;;;5.00;72.91
60583;BME280;46415;47.536;19.066;2023-01-31T14:18:07;100640.72;;;4.96;73.95
60583;BME280;46415;47.536;19.066;2023-01-31T14:30:54;100653.84;;;4.79;76.17
60583;BME280;46415;47.536;19.066;2023-01-31T14:33:58;100647.16;;;4.69;76.70
60583;BME280;46415;47.536;19.066;2023-01-31T14:41:44;100650.94;;;4.46;82.24
60583;BME280;46415;47.536;19.066;2023-01-31T14:44:53;100668.00;;;4.49;84.55
60583;BME280;46415;47.536;19.066;2023-01-31T14:52:17;100642.47;;;4.38;88.51
60583;BME280;46415;47.536;19.066;2023-01-31T14:55:38;100649.34;;;4.36;89.80
60583;BME280;46415;47.536;19.066;2023-01-31T14:58:46;100658.09;;;4.23;92.21
60583;BME280;46415;47.536;19.066;2023-01-31T15:01:49;100657.19;;;4.27;92.50
60583;BME280;46415;47.536;19.066;2023-01-31T15:05:17;100658.06;;;4.26;94.06
60583;BME280;46415;47.536;19.066;2023-01-31T15:11:44;100638.28;;;4.31;94.35
60583;BME280;46415;47.536;19.066;2023-01-31T15:14:47;100641.06;;;4.16;95.60
60583;BME280;46415;47.536;19.066;2023-01-31T15:17:51;100651.34;;;4.16;95.64
60583;BME280;46415;47.536;19.066;2023-01-31T15:21:00;100658.13;;;4.22;95.38
60583;BME280;46415;47.536;19.066;2023-01-31T15:24:15;100671.22;;;4.02;97.31
60583;BME280;46415;47.536;19.066;2023-01-31T15:27:27;100659.66;;;3.66;100.00
60583;BME280;46415;47.536;19.066;2023-01-31T15:30:32;100662.53;;;3.36;100.00
60583;BME280;46415;47.536;19.066;2023-01-31T15:33:41;100664.28;;;3.34;100.00
60583;BME280;46415;47.536;19.066;2023-01-31T15:43:23;100656.66;;;3.24;100.00
60583;BME280;46415;47.536;19.066;2023-01-31T15:46:31;100654.03;;;3.29;100.00
60583;BME280;46415;47.536;19.066;2023-01-31T15:49:40;100651.47;;;3.29;100.00
60583;BME280;46415;47.536;19.066;2023-01-31T15:52:44;100653.13;;;3.36;100.00
60583;BME280;46415;47.536;19.066;2023-01-31T15:55:48;100649.75;;;3.31;100.00
60583;BME280;46415;47.536;19.066;2023-01-31T15:58:54;100658.31;;;3.32;100.00
60583;BME280;46415;47.536;19.066;2023-01-31T16:02:02;100662.59;;;3.28;100.00
60583;BME280;46415;47.536;19.066;2023-01-31T16:05:06;100662.56;;;3.31;100.00
60583;BME280;46415;47.536;19.066;2023-01-31T16:08:41;100659.16;;;3.31;100.00
60583;BME280;46415;47.536;19.066;2023-01-31T16:11:43;100671.22;;;3.21;100.00
60583;BME280;46415;47.536;19.066;2023-01-31T16:14:47;100665.25;;;3.20;100.00
60583;BME280;46415;47.536;19.066;2023-01-31T16:17:52;100657.47;;;3.29;100.00
60583;BME280;46415;47.536;19.066;2023-01-31T16:20:56;100652.22;;;3.40;100.00
60583;BME280;46415;47.536;19.066;2023-01-31T16:24:19;100648.16;;;3.21;100.00
60583;BME280;46415;47.536;19.066;2023-01-31T16:27:23;100650.78;;;3.12;100.00
60583;BME280;46415;47.536;19.066;2023-01-31T16:30:27;100654.25;;;3.08;100.00
60583;BME280;46415;47.536;19.066;2023-01-31T16:33:31;100658.47;;;3.10;100.00
60583;BME280;46415;47.536;19.066;2023-01-31T16:39:59;100666.16;;;3.12;100.00
60583;BME280;46415;47.536;19.066;2023-01-31T16:43:16;100664.41;;;3.18;100.00
60583;BME280;46415;47.536;19.066;2023-01-31T16:46:43;100673.88;;;3.10;100.00
60583;BME280;46415;47.536;19.066;2023-01-31T16:49:48;100673.91;;;3.09;100.00
60583;BME280;46415;47.536;19.066;2023-01-31T16:53:13;100673.06;;;3.07;100.00
60583;BME280;46415;47.536;19.066;2023-01-31T16:56:19;100662.75;;;3.11;100.00
60583;BME280;46415;47.536;19.066;2023-01-31T17:02:39;100660.06;;;3.26;100.00
60583;BME280;46415;47.536;19.066;2023-01-31T17:05:43;100651.63;;;3.14;100.00
60583;BME280;46415;47.536;19.066;2023-01-31T17:08:49;100662.69;;;3.16;100.00
60583;BME280;46415;47.536;19.066;2023-01-31T17:11:53;100656.59;;;3.31;100.00
60583;BME280;46415;47.536;19.066;2023-01-31T17:14:57;100655.75;;;3.30;100.00
60583;BME280;46415;47.536;19.066;2023-01-31T17:18:05;100657.44;;;3.31;100.00
60583;BME280;46415;47.536;19.066;2023-01-31T17:21:09;100662.53;;;3.37;100.00
60583;BME280;46415;47.536;19.066;2023-01-31T17:24:14;100663.31;;;3.44;100.00
60583;BME280;46415;47.536;19.066;2023-01-31T17:27:19;100658.19;;;3.44;100.00
60583;BME280;46415;47.536;19.066;2023-01-31T17:30:22;100664.91;;;3.55;100.00
60583;BME280;46415;47.536;19.066;2023-01-31T17:33:26;100670.84;;;3.60;98.67
60583;BME280;46415;47.536;19.066;2023-01-31T17:36:28;100666.44;;;3.70;96.12
60583;BME280;46415;47.536;19.066;2023-01-31T17:39:32;100660.50;;;3.66;97.20
60583;BME280;46415;47.536;19.066;2023-01-31T17:42:36;100659.56;;;3.72;96.75
60583;BME280;46415;47.536;19.066;2023-01-31T17:45:39;100668.09;;;3.76;95.02
60583;BME280;46415;47.536;19.066;2023-01-31T17:48:43;100663.84;;;3.75;94.08
60583;BME280;46415;47.536;19.066;2023-01-31T17:51:46;100661.16;;;3.82;92.54
60583;BME280;46415;47.536;19.066;2023-01-31T17:54:49;100668.84;;;3.87;90.06
60583;BME280;46415;47.536;19.066;2023-01-31T17:57:52;100667.00;;;3.95;88.44
60583;BME280;46415;47.536;19.066;2023-01-31T18:00:55;100659.28;;;3.96;87.99
60583;BME280;46415;47.536;19.066;2023-01-31T18:03:58;100665.28;;;3.95;87.96
60583;BME280;46415;47.536;19.066;2023-01-31T18:07:02;100666.91;;;4.04;84.35